sensor_id;sensor_type;location;lat;lon;timestamp;pressure;altitude;pressure_sealevel;temperature;humidity
2875;BME280;1445;52.600;13.328;2023-04-01T00:00:11;99205.78;;;9.25;100.00
2875;BME280;1445;52.600;13.328;2023-04-01T00:02:36;99196.09;;;9.19;100.00
2875;BME280;1445;52.600;13.328;2023-04-01T00:05:02;99209.34;;;9.25;100.00
2875;BME280;1445;52.600;13.328;2023-04-01T00:07:27;99194.03;;;9.16;100.00
2875;BME280;1445;52.600;13.328;2023-04-01T00:09:53;99203.91;;;9.17;100.00
2875;BME280;1445;52.600;13.328;2023-04-01T00:12:18;99196.47;;;9.08;100.00
2875;BME280;1445;52.600;13.328;2023-04-01T00:14:44;99205.16;;;9.19;100.00
2875;BME280;1445;52.600;13.328;2023-04-01T00:17:09;99195.44;;;9.22;100.00
2875;BME280;1445;52.600;13.328;2023-04-01T00:19:35;99199.66;;;9.19;100.00
2875;BME280;1445;52.600;13.328;2023-04-01T00:22:02;99205.31;;;9.23;100.00
2875;BME280;1445;52.600;13.328;2023-04-01T00:24:27;99205.78;;;9.25;100.00
2875;BME280;1445;52.600;13.328;2023-04-01T00:26:53;99197.91;;;9.15;100.00
2875;BME280;1445;52.600;13.328;2023-04-01T00:29:18;99204.50;;;9.22;100.00
2875;BME280;1445;52.600;13.328;2023-04-01T00:31:44;99197.75;;;9.20;100.00
2875;BME280;1445;52.600;13.328;2023-04-01T00:34:09;99197.88;;;9.23;100.00
2875;BME280;1445;52.600;13.328;2023-04-01T00:36:35;99199.28;;;9.29;100.00
2875;BME280;1445;52.600;13.328;2023-04-01T00:39:00;99197.75;;;9.20;100.00
2875;BME280;1445;52.600;13.328;2023-04-01T00:41:26;99197.59;;;9.16;100.00
2875;BME280;1445;52.600;13.328;2023-04-01T00:43:52;99202.38;;;9.28;100.00
2875;BME280;1445;52.600;13.328;2023-04-01T00:46:18;99191.63;;;9.14;100.00
2875;BME280;1445;52.600;13.328;2023-04-01T00:48:54;99197.06;;;9.23;100.00
2875;BME280;1445;52.600;13.328;2023-04-01T00:51:24;99192.25;;;9.20;100.00
2875;BME280;1445;52.600;13.328;2023-04-01T00:53:52;99202.25;;;9.24;100.00
2875;BME280;1445;52.600;13.328;2023-04-01T00:56:25;99200.59;;;9.32;100.00
2875;BME280;1445;52.600;13.328;2023-04-01T00:58:56;99204.63;;;9.35;100.00
2875;BME280;1445;52.600;13.328;2023-04-01T01:01:23;99202.38;;;9.28;100.00
2875;BME280;1445;52.600;13.328;2023-04-01T01:03:49;99197.84;;;9.32;100.00
2875;BME280;1445;52.600;13.328;2023-04-01T01:36:42;99208.25;;;9.18;100.00
2875;BME280;1445;52.600;13.328;2023-04-01T01:39:12;99213.19;;;9.33;100.00
2875;BME280;1445;52.600;13.328;2023-04-01T01:41:41;99209.31;;;9.34;100.00
2875;BME280;1445;52.600;13.328;2023-04-01T01:44:09;99213.34;;;9.37;100.00
2875;BME280;1445;52.600;13.328;2023-04-01T01:46:37;99204.63;;;9.35;100.00
2875;BME280;1445;52.600;13.328;2023-04-01T01:49:05;99213.19;;;9.33;100.00
2875;BME280;1445;52.600;13.328;2023-04-01T01:51:32;99210.28;;;9.29;100.00
2875;BME280;1445;52.600;13.328;2023-04-01T01:53:58;99210.44;;;9.33;100.00
2875;BME280;1445;52.600;13.328;2023-04-01T01:56:26;99207.53;;;9.29;100.00
2875;BME280;1445;52.600;13.328;2023-04-01T01:59:00;99215.34;;;9.19;100.00
2875;BME280;1445;52.600;13.328;2023-04-01T02:01:31;99211.94;;;9.22;100.00
2875;BME280;1445;52.600;13.328;2023-04-01T02:03:58;99204.06;;;9.12;100.00
2875;BME280;1445;52.600;13.328;2023-04-01T02:06:26;99206.81;;;9.12;100.00
2875;BME280;1445;52.600;13.328;2023-04-01T02:09:00;99212.16;;;9.17;100.00
2875;BME280;1445;52.600;13.328;2023-04-01T02:16:32;99218.75;;;9.16;100.00
2875;BME280;1445;52.600;13.328;2023-04-01T02:19:00;99207.47;;;9.08;100.00
2875;BME280;1445;52.600;13.328;2023-04-01T02:21:31;99226.91;;;9.03;100.00
2875;BME280;1445;52.600;13.328;2023-04-01T02:23:58;99217.50;;;9.04;100.00
2875;BME280;1445;52.600;13.328;2023-04-01T02:26:26;99219.44;;;9.13;100.00
2875;BME280;1445;52.600;13.328;2023-04-01T02:28:53;99215.41;;;9.01;100.00
2875;BME280;1445;52.600;13.328;2023-04-01T02:31:20;99218.94;;;9.11;100.00
2875;BME280;1445;52.600;13.328;2023-04-01T02:33:47;99220.56;;;9.12;100.00
2875;BME280;1445;52.600;13.328;2023-04-01T02:36:13;99221.22;;;9.08;100.00
2875;BME280;1445;52.600;13.328;2023-04-01T02:38:41;99219.31;;;9.00;100.00
2875;BME280;1445;52.600;13.328;2023-04-01T02:41:07;99223.00;;;9.04;100.00
2875;BME280;1445;52.600;13.328;2023-04-01T02:43:33;99229.16;;;9.01;100.00
2875;BME280;1445;52.600;13.328;2023-04-01T02:45:59;99235.78;;;9.09;100.00
2875;BME280;1445;52.600;13.328;2023-04-01T02:48:24;99227.84;;;9.07;100.00
2875;BME280;1445;52.600;13.328;2023-04-01T02:50:50;99240.66;;;9.03;100.00
2875;BME280;1445;52.600;13.328;2023-04-01T02:53:16;99230.78;;;9.02;100.00
2875;BME280;1445;52.600;13.328;2023-04-01T02:55:42;99237.25;;;9.06;100.00
2875;BME280;1445;52.600;13.328;2023-04-01T02:58:07;99239.66;;;9.08;100.00
2875;BME280;1445;52.600;13.328;2023-04-01T03:00:32;99236.16;;;8.99;100.00
2875;BME280;1445;52.600;13.328;2023-04-01T03:02:58;99239.50;;;9.04;100.00
2875;BME280;1445;52.600;13.328;2023-04-01T03:05:24;99246.78;;;9.00;100.00
2875;BME280;1445;52.600;13.328;2023-04-01T03:07:49;99250.34;;;9.10;100.00
2875;BME280;1445;52.600;13.328;2023-04-01T03:10:15;99240.44;;;9.08;100.00
2875;BME280;1445;52.600;13.328;2023-04-01T03:12:40;99243.34;;;9.12;100.00
2875;BME280;1445;52.600;13.328;2023-04-01T03:15:06;99246.59;;;9.14;100.00
2875;BME280;1445;52.600;13.328;2023-04-01T03:17:32;99253.38;;;9.17;100.00
2875;BME280;1445;52.600;13.328;2023-04-01T03:19:57;99257.09;;;9.21;100.00
2875;BME280;1445;52.600;13.328;2023-04-01T03:22:23;99251.72;;;9.24;100.00
2875;BME280;1445;52.600;13.328;2023-04-01T03:24:49;99246.84;;;9.30;100.00
2875;BME280;1445;52.600;13.328;2023-04-01T03:27:14;99255.09;;;9.30;100.00
2875;BME280;1445;52.600;13.328;2023-04-01T03:29:40;99258.78;;;9.43;100.00
2875;BME280;1445;52.600;13.328;2023-04-01T03:32:06;99263.47;;;9.42;100.00
2875;BME280;1445;52.600;13.328;2023-04-01T03:34:31;99262.31;;;9.43;100.00
2875;BME280;1445;52.600;13.328;2023-04-01T03:36:57;99259.91;;;9.42;100.00
2875;BME280;1445;52.600;13.328;2023-04-01T03:39:23;99260.22;;;9.40;100.00
2875;BME280;1445;52.600;13.328;2023-04-01T03:41:48;99261.38;;;9.39;100.00
2875;BME280;1445;52.600;13.328;2023-04-01T03:44:14;99269.63;;;9.39;100.00
2875;BME280;1445;52.600;13.328;2023-04-01T03:46:40;99271.22;;;9.40;100.00
2875;BME280;1445;52.600;13.328;2023-04-01T03:49:09;99275.75;;;9.45;100.00
2875;BME280;1445;52.600;13.328;2023-04-01T03:51:39;99276.22;;;9.47;100.00
2875;BME280;1445;52.600;13.328;2023-04-01T03:54:04;99275.41;;;9.46;100.00
2875;BME280;1445;52.600;13.328;2023-04-01T03:56:31;99281.56;;;9.52;100.00
2875;BME280;1445;52.600;13.328;2023-04-01T03:58:57;99283.66;;;9.46;100.00
2875;BME280;1445;52.600;13.328;2023-04-01T04:01:22;99289.97;;;9.47;100.00
2875;BME280;1445;52.600;13.328;2023-04-01T04:03:48;99279.47;;;9.40;100.00
2875;BME280;1445;52.600;13.328;2023-04-01T04:06:16;99281.56;;;9.43;100.00
2875;BME280;1445;52.600;13.328;2023-04-01T04:08:42;99293.53;;;9.47;100.00
2875;BME280;1445;52.600;13.328;2023-04-01T04:11:08;99283.88;;;9.41;100.00
2875;BME280;1445;52.600;13.328;2023-04-01T04:13:34;99291.91;;;9.46;100.00
2875;BME280;1445;52.600;13.328;2023-04-01T04:15:59;99299.09;;;9.30;100.00
2875;BME280;1445;52.600;13.328;2023-04-01T04:18:25;99290.75;;;9.09;100.00
2875;BME280;1445;52.600;13.328;2023-04-01T04:20:50;99292.03;;;9.12;100.00
2875;BME280;1445;52.600;13.328;2023-04-01T04:23:16;99294.31;;;9.10;100.00
2875;BME280;1445;52.600;13.328;2023-04-01T04:26:08;99309.31;;;9.21;100.00
2875;BME280;1445;52.600;13.328;2023-04-01T04:28:34;99305.44;;;9.22;100.00
2875;BME280;1445;52.600;13.328;2023-04-01T04:31:01;99295.06;;;9.19;100.00
2875;BME280;1445;52.600;13.328;2023-04-01T04:33:26;99299.81;;;9.10;100.00
2875;BME280;1445;52.600;13.328;2023-04-01T04:35:56;99305.91;;;9.24;100.00
2875;BME280;1445;52.600;13.328;2023-04-01T04:38:22;99311.25;;;9.20;100.00
2875;BME280;1445;52.600;13.328;2023-04-01T04:40:47;99309.78;;;9.23;100.00
2875;BME280;1445;52.600;13.328;2023-04-01T04:43:14;99309.94;;;9.26;100.00
2875;BME280;1445;52.600;13.328;2023-04-01T04:45:41;99307.66;;;9.37;100.00
2875;BME280;1445;52.600;13.328;2023-04-01T04:48:08;99304.28;;;9.31;100.00
2875;BME280;1445;52.600;13.328;2023-04-01T04:50:34;99314.78;;;9.38;100.00
2875;BME280;1445;52.600;13.328;2023-04-01T04:53:00;99319.63;;;9.41;100.00
2875;BME280;1445;52.600;13.328;2023-04-01T04:55:28;99313.31;;;9.41;100.00
2875;BME280;1445;52.600;13.328;2023-04-01T04:57:54;99317.78;;;9.54;100.00
2875;BME280;1445;52.600;13.328;2023-04-01T05:00:19;99314.72;;;9.55;100.00
2875;BME280;1445;52.600;13.328;2023-04-01T05:02:45;99316.31;;;9.56;100.00
2875;BME280;1445;52.600;13.328;2023-04-01T05:05:10;99319.72;;;9.53;100.00
2875;BME280;1445;52.600;13.328;2023-04-01T05:07:36;99321.00;;;9.56;100.00
2875;BME280;1445;52.600;13.328;2023-04-01T05:10:02;99316.13;;;9.62;100.00
2875;BME280;1445;52.600;13.328;2023-04-01T05:12:28;99320.00;;;9.61;100.00
2875;BME280;1445;52.600;13.328;2023-04-01T05:14:53;99318.22;;;9.65;100.00
2875;BME280;1445;52.600;13.328;2023-04-01T05:17:19;99331.00;;;9.69;100.00
2875;BME280;1445;52.600;13.328;2023-04-01T05:19:44;99330.19;;;9.69;100.00
2875;BME280;1445;52.600;13.328;2023-04-01T05:22:10;99328.41;;;9.73;100.00
2875;BME280;1445;52.600;13.328;2023-04-01T05:24:35;99329.22;;;9.65;100.00
2875;BME280;1445;52.600;13.328;2023-04-01T05:27:01;99328.56;;;9.68;100.00
2875;BME280;1445;52.600;13.328;2023-04-01T05:29:26;99331.16;;;9.64;100.00
2875;BME280;1445;52.600;13.328;2023-04-01T05:31:52;99335.34;;;9.70;100.00
2875;BME280;1445;52.600;13.328;2023-04-01T05:34:17;99344.56;;;9.74;100.00
2875;BME280;1445;52.600;13.328;2023-04-01T05:36:43;99338.31;;;9.65;100.00
2875;BME280;1445;52.600;13.328;2023-04-01T05:39:09;99349.47;;;9.69;100.00
2875;BME280;1445;52.600;13.328;2023-04-01T05:41:38;99339.75;;;9.63;100.00
2875;BME280;1445;52.600;13.328;2023-04-01T05:44:04;99341.06;;;9.65;100.00
2875;BME280;1445;52.600;13.328;2023-04-01T05:46:31;99342.31;;;9.76;100.00
2875;BME280;1445;52.600;13.328;2023-04-01T05:48:56;99341.50;;;9.76;100.00
2875;BME280;1445;52.600;13.328;2023-04-01T05:51:22;99345.28;;;9.92;100.00
2875;BME280;1445;52.600;13.328;2023-04-01T05:53:48;99355.31;;;9.97;100.00
2875;BME280;1445;52.600;13.328;2023-04-01T05:56:14;99354.69;;;9.91;100.00
2875;BME280;1445;52.600;13.328;2023-04-01T05:58:39;99348.53;;;9.94;100.00
2875;BME280;1445;52.600;13.328;2023-04-01T06:01:09;99358.06;;;9.97;100.00
2875;BME280;1445;52.600;13.328;2023-04-01T06:03:35;99360.47;;;9.98;100.00
2875;BME280;1445;52.600;13.328;2023-04-01T06:06:00;99361.72;;;10.10;100.00
2875;BME280;1445;52.600;13.328;2023-04-01T06:08:26;99366.91;;;10.11;100.00
2875;BME280;1445;52.600;13.328;2023-04-01T06:26:52;99372.84;;;10.22;100.00
2875;BME280;1445;52.600;13.328;2023-04-01T06:29:34;99382.88;;;10.18;100.00
2875;BME280;1445;52.600;13.328;2023-04-01T06:32:32;99381.09;;;10.22;100.00
2875;BME280;1445;52.600;13.328;2023-04-01T06:46:14;99379.78;;;10.28;100.00
2875;BME280;1445;52.600;13.328;2023-04-01T06:52:04;99389.88;;;10.45;100.00
2875;BME280;1445;52.600;13.328;2023-04-01T06:54:42;99379.91;;;10.32;100.00
2875;BME280;1445;52.600;13.328;2023-04-01T06:57:29;99377.31;;;10.35;100.00
2875;BME280;1445;52.600;13.328;2023-04-01T06:59:59;99378.72;;;10.41;100.00
2875;BME280;1445;52.600;13.328;2023-04-01T07:02:33;99374.50;;;10.44;100.00
2875;BME280;1445;52.600;13.328;2023-04-01T07:05:00;99385.19;;;10.45;100.00
2875;BME280;1445;52.600;13.328;2023-04-01T07:07:37;99385.03;;;10.42;100.00
2875;BME280;1445;52.600;13.328;2023-04-01T07:10:12;99387.81;;;10.42;100.00
2875;BME280;1445;52.600;13.328;2023-04-01T07:12:59;99388.81;;;10.37;100.00
2875;BME280;1445;52.600;13.328;2023-04-01T07:15:35;99392.38;;;10.38;100.00
2875;BME280;1445;52.600;13.328;2023-04-01T07:18:07;99386.13;;;10.29;100.00
2875;BME280;1445;52.600;13.328;2023-04-01T07:23:31;99388.88;;;10.20;100.00
2875;BME280;1445;52.600;13.328;2023-04-01T07:26:11;99392.09;;;10.31;100.00
2875;BME280;1445;52.600;13.328;2023-04-01T07:28:39;99390.13;;;10.31;100.00
2875;BME280;1445;52.600;13.328;2023-04-01T07:33:57;99403.16;;;10.13;100.00
2875;BME280;1445;52.600;13.328;2023-04-01T07:36:26;99404.72;;;10.23;100.00
2875;BME280;1445;52.600;13.328;2023-04-01T07:41:44;99410.03;;;10.37;100.00
2875;BME280;1445;52.600;13.328;2023-04-01T07:45:05;99408.56;;;10.39;100.00
2875;BME280;1445;52.600;13.328;2023-04-01T07:47:56;99416.78;;;10.48;100.00
2875;BME280;1445;52.600;13.328;2023-04-01T07:50:32;99415.03;;;10.43;100.00
2875;BME280;1445;52.600;13.328;2023-04-01T07:56:20;99418.78;;;10.60;100.00
2875;BME280;1445;52.600;13.328;2023-04-01T08:01:05;99425.91;;;10.40;100.00
2875;BME280;1445;52.600;13.328;2023-04-01T08:06:37;99425.63;;;10.24;100.00
2875;BME280;1445;52.600;13.328;2023-04-01T08:15:15;99429.88;;;10.13;100.00
2875;BME280;1445;52.600;13.328;2023-04-01T08:18:09;99427.34;;;10.08;100.00
2875;BME280;1445;52.600;13.328;2023-04-01T08:20:58;99436.06;;;10.10;100.00
2875;BME280;1445;52.600;13.328;2023-04-01T08:23:52;99435.53;;;10.16;100.00
2875;BME280;1445;52.600;13.328;2023-04-01T08:26:32;99437.50;;;10.16;100.00
2875;BME280;1445;52.600;13.328;2023-04-01T08:29:05;99442.38;;;10.10;100.00
2875;BME280;1445;52.600;13.328;2023-04-01T08:31:44;99442.50;;;10.14;100.00
2875;BME280;1445;52.600;13.328;2023-04-01T08:34:19;99441.91;;;10.08;100.00
2875;BME280;1445;52.600;13.328;2023-04-01T08:37:04;99445.66;;;9.95;100.00
2875;BME280;1445;52.600;13.328;2023-04-01T08:39:34;99452.63;;;9.92;100.00
2875;BME280;1445;52.600;13.328;2023-04-01T08:45:15;99460.56;;;9.94;100.00
2875;BME280;1445;52.600;13.328;2023-04-01T08:47:56;99462.09;;;9.74;100.00
2875;BME280;1445;52.600;13.328;2023-04-01T09:04:28;99472.53;;;9.98;100.00
2875;BME280;1445;52.600;13.328;2023-04-01T09:10:05;99465.44;;;9.88;100.00
2875;BME280;1445;52.600;13.328;2023-04-01T09:12:57;99470.41;;;10.03;100.00
2875;BME280;1445;52.600;13.328;2023-04-01T09:27:04;99482.84;;;10.18;100.00
2875;BME280;1445;52.600;13.328;2023-04-01T09:32:59;99490.38;;;10.39;100.00
2875;BME280;1445;52.600;13.328;2023-04-01T09:38:22;99491.13;;;10.10;100.00
2875;BME280;1445;52.600;13.328;2023-04-01T10:22:55;99508.47;;;10.01;100.00
2875;BME280;1445;52.600;13.328;2023-04-01T10:36:52;99509.75;;;10.13;100.00
2875;BME280;1445;52.600;13.328;2023-04-01T10:48:17;99518.84;;;9.96;100.00
2875;BME280;1445;52.600;13.328;2023-04-01T10:53:49;99522.13;;;9.72;100.00
2875;BME280;1445;52.600;13.328;2023-04-01T11:32:28;99557.09;;;9.71;100.00
2875;BME280;1445;52.600;13.328;2023-04-01T11:40:47;99559.22;;;9.66;100.00
2875;BME280;1445;52.600;13.328;2023-04-01T11:46:11;99563.56;;;9.49;100.00
2875;BME280;1445;52.600;13.328;2023-04-01T11:51:53;99581.06;;;9.53;100.00
2875;BME280;1445;52.600;13.328;2023-04-01T12:11:34;99601.03;;;9.02;100.00
2875;BME280;1445;52.600;13.328;2023-04-01T12:44:07;99649.94;;;8.82;100.00
2875;BME280;1445;52.600;13.328;2023-04-01T12:46:58;99654.28;;;8.75;100.00
2875;BME280;1445;52.600;13.328;2023-04-01T12:52:22;99667.41;;;8.87;100.00
2875;BME280;1445;52.600;13.328;2023-04-01T12:55:05;99667.34;;;8.69;100.00
2875;BME280;1445;52.600;13.328;2023-04-01T13:25:27;99710.38;;;8.29;100.00
2875;BME280;1445;52.600;13.328;2023-04-01T13:28:22;99715.94;;;8.38;100.00
2875;BME280;1445;52.600;13.328;2023-04-01T13:34:06;99724.81;;;8.57;100.00
2875;BME280;1445;52.600;13.328;2023-04-01T13:42:37;99730.00;;;8.22;100.00
2875;BME280;1445;52.600;13.328;2023-04-01T13:56:16;99747.16;;;8.28;100.00
2875;BME280;1445;52.600;13.328;2023-04-01T13:59:10;99759.78;;;8.29;100.00
2875;BME280;1445;52.600;13.328;2023-04-01T14:06:54;99761.06;;;8.31;100.00
2875;BME280;1445;52.600;13.328;2023-04-01T14:22:46;99777.03;;;7.93;100.00
2875;BME280;1445;52.600;13.328;2023-04-01T14:27:53;99776.81;;;8.03;100.00
2875;BME280;1445;52.600;13.328;2023-04-01T14:30:33;99781.44;;;7.80;100.00
2875;BME280;1445;52.600;13.328;2023-04-01T14:33:34;99776.44;;;7.69;100.00
2875;BME280;1445;52.600;13.328;2023-04-01T14:38:51;99777.97;;;7.75;100.00
2875;BME280;1445;52.600;13.328;2023-04-01T14:44:23;99785.41;;;7.74;100.00
2875;BME280;1445;52.600;13.328;2023-04-01T14:47:04;99793.94;;;7.73;100.00
2875;BME280;1445;52.600;13.328;2023-04-01T14:54:47;99792.28;;;7.85;100.00
2875;BME280;1445;52.600;13.328;2023-04-01T14:57:31;99808.75;;;7.72;100.00
2875;BME280;1445;52.600;13.328;2023-04-01T15:00:05;99812.34;;;7.72;100.00
2875;BME280;1445;52.600;13.328;2023-04-01T15:03:07;99817.91;;;7.67;100.00
2875;BME280;1445;52.600;13.328;2023-04-01T15:14:12;99829.81;;;7.49;100.00
2875;BME280;1445;52.600;13.328;2023-04-01T15:28:24;99848.84;;;7.26;100.00
2875;BME280;1445;52.600;13.328;2023-04-01T15:39:00;99860.13;;;7.25;100.00
2875;BME280;1445;52.600;13.328;2023-04-01T15:41:43;99858.34;;;7.15;100.00
2875;BME280;1445;52.600;13.328;2023-04-01T15:49:49;99875.81;;;7.19;100.00
2875;BME280;1445;52.600;13.328;2023-04-01T15:52:24;99876.34;;;7.21;100.00
2875;BME280;1445;52.600;13.328;2023-04-01T16:00:10;99893.59;;;6.89;100.00
2875;BME280;1445;52.600;13.328;2023-04-01T16:08:55;99906.69;;;6.73;100.00
2875;BME280;1445;52.600;13.328;2023-04-01T16:19:48;99921.28;;;6.68;100.00
2875;BME280;1445;52.600;13.328;2023-04-01T16:22:36;99927.56;;;6.69;100.00
2875;BME280;1445;52.600;13.328;2023-04-01T16:36:28;99946.50;;;6.47;100.00
2875;BME280;1445;52.600;13.328;2023-04-01T16:41:42;99952.03;;;6.41;100.00
2875;BME280;1445;52.600;13.328;2023-04-01T17:02:31;99985.59;;;6.28;100.00
2875;BME280;1445;52.600;13.328;2023-04-01T17:05:05;99995.56;;;6.19;100.00
2875;BME280;1445;52.600;13.328;2023-04-01T17:07:46;99988.16;;;6.19;100.00
2875;BME280;1445;52.600;13.328;2023-04-01T17:10:36;99989.84;;;6.15;100.00
2875;BME280;1445;52.600;13.328;2023-04-01T17:15:47;100009.94;;;6.06;100.00
2875;BME280;1445;52.600;13.328;2023-04-01T17:18:42;100017.03;;;6.07;100.00
2875;BME280;1445;52.600;13.328;2023-04-01T17:21:16;100020.69;;;5.97;100.00
2875;BME280;1445;52.600;13.328;2023-04-01T17:24:04;100020.16;;;5.95;100.00
2875;BME280;1445;52.600;13.328;2023-04-01T17:26:41;100034.38;;;5.97;100.00
2875;BME280;1445;52.600;13.328;2023-04-01T17:32:03;100045.72;;;5.80;100.00
2875;BME280;1445;52.600;13.328;2023-04-01T17:37:29;100045.56;;;5.66;100.00
2875;BME280;1445;52.600;13.328;2023-04-01T17:40:19;100050.44;;;5.69;100.00
2875;BME280;1445;52.600;13.328;2023-04-01T17:45:57;100063.56;;;5.67;100.00
2875;BME280;1445;52.600;13.328;2023-04-01T17:48:53;100074.03;;;5.60;100.00
2875;BME280;1445;52.600;13.328;2023-04-01T17:51:48;100062.03;;;5.56;100.00
2875;BME280;1445;52.600;13.328;2023-04-01T18:11:15;100109.78;;;5.24;100.00
2875;BME280;1445;52.600;13.328;2023-04-01T18:16:43;100112.53;;;5.19;100.00
2875;BME280;1445;52.600;13.328;2023-04-01T18:19:43;100122.41;;;5.15;100.00
2875;BME280;1445;52.600;13.328;2023-04-01T18:22:42;100132.25;;;5.11;100.00
2875;BME280;1445;52.600;13.328;2023-04-01T18:25:33;100134.97;;;5.16;100.00
2875;BME280;1445;52.600;13.328;2023-04-01T18:28:32;100145.91;;;5.11;100.00
2875;BME280;1445;52.600;13.328;2023-04-01T18:33:36;100147.88;;;5.06;100.00
2875;BME280;1445;52.600;13.328;2023-04-01T18:39:07;100167.00;;;5.00;100.00
2875;BME280;1445;52.600;13.328;2023-04-01T18:41:42;100167.00;;;5.00;100.00
2875;BME280;1445;52.600;13.328;2023-04-01T18:47:07;100188.31;;;4.98;100.00
2875;BME280;1445;52.600;13.328;2023-04-01T18:49:46;100197.34;;;4.99;100.00
2875;BME280;1445;52.600;13.328;2023-04-01T18:52:43;100204.13;;;5.01;100.00
2875;BME280;1445;52.600;13.328;2023-04-01T18:55:31;100204.97;;;5.02;100.00
2875;BME280;1445;52.600;13.328;2023-04-01T18:58:17;100218.38;;;4.93;100.00
2875;BME280;1445;52.600;13.328;2023-04-01T19:01:22;100223.84;;;4.98;100.00
2875;BME280;1445;52.600;13.328;2023-04-01T19:04:31;100214.28;;;4.96;100.00
2875;BME280;1445;52.600;13.328;2023-04-01T19:06:45;100224.66;;;4.99;100.00
2875;BME280;1445;52.600;13.328;2023-04-01T19:09:25;100233.09;;;4.97;100.00
2875;BME280;1445;52.600;13.328;2023-04-01T19:17:44;100236.72;;;4.77;100.00
2875;BME280;1445;52.600;13.328;2023-04-01T19:20:20;100248.19;;;4.74;100.00
2875;BME280;1445;52.600;13.328;2023-04-01T19:23:15;100252.56;;;4.60;100.00
2875;BME280;1445;52.600;13.328;2023-04-01T19:25:55;100248.44;;;4.52;100.00
2875;BME280;1445;52.600;13.328;2023-04-01T19:36:59;100273.59;;;4.49;100.00
2875;BME280;1445;52.600;13.328;2023-04-01T19:45:20;100288.56;;;4.42;100.00
2875;BME280;1445;52.600;13.328;2023-04-01T19:52:59;100303.84;;;4.33;100.00
2875;BME280;1445;52.600;13.328;2023-04-01T19:55:44;100308.22;;;4.39;100.00
2875;BME280;1445;52.600;13.328;2023-04-01T19:58:26;100315.84;;;4.31;100.00
2875;BME280;1445;52.600;13.328;2023-04-01T20:01:00;100322.41;;;4.36;100.00
2875;BME280;1445;52.600;13.328;2023-04-01T20:06:04;100322.13;;;4.32;100.00
2875;BME280;1445;52.600;13.328;2023-04-01T20:08:54;100329.22;;;4.18;100.00
2875;BME280;1445;52.600;13.328;2023-04-01T20:19:51;100363.81;;;4.17;100.00
2875;BME280;1445;52.600;13.328;2023-04-01T20:44:10;100408.19;;;3.87;100.00
2875;BME280;1445;52.600;13.328;2023-04-01T20:57:38;100421.47;;;3.73;100.00
2875;BME280;1445;52.600;13.328;2023-04-01T21:02:53;100425.59;;;3.81;100.00
2875;BME280;1445;52.600;13.328;2023-04-01T21:05:59;100431.03;;;3.81;100.00
2875;BME280;1445;52.600;13.328;2023-04-01T21:08:57;100424.72;;;3.70;100.00
2875;BME280;1445;52.600;13.328;2023-04-01T21:14:01;100434.28;;;3.78;100.00
2875;BME280;1445;52.600;13.328;2023-04-01T21:19:30;100438.66;;;3.79;100.00
2875;BME280;1445;52.600;13.328;2023-04-01T21:24:39;100449.31;;;3.80;100.00
2875;BME280;1445;52.600;13.328;2023-04-01T21:27:13;100447.09;;;3.77;100.00
2875;BME280;1445;52.600;13.328;2023-04-01T21:38:06;100465.03;;;3.68;100.00
2875;BME280;1445;52.600;13.328;2023-04-01T21:43:49;100468.56;;;3.64;100.00
2875;BME280;1445;52.600;13.328;2023-04-01T21:52:29;100473.75;;;3.65;100.00
2875;BME280;1445;52.600;13.328;2023-04-01T22:06:32;100486.28;;;3.66;100.00
2875;BME280;1445;52.600;13.328;2023-04-01T22:09:24;100479.16;;;3.60;100.00
2875;BME280;1445;52.600;13.328;2023-04-01T22:28:42;100504.00;;;3.64;100.00
2875;BME280;1445;52.600;13.328;2023-04-01T22:30:50;100511.66;;;3.67;100.00
2875;BME280;1445;52.600;13.328;2023-04-01T22:44:01;100520.13;;;3.70;100.00
2875;BME280;1445;52.600;13.328;2023-04-01T22:47:04;100536.47;;;3.70;100.00
2875;BME280;1445;52.600;13.328;2023-04-01T22:52:16;100544.44;;;3.77;100.00
2875;BME280;1445;52.600;13.328;2023-04-01T22:54:46;100539.50;;;3.74;100.00
2875;BME280;1445;52.600;13.328;2023-04-01T22:57:35;100543.34;;;3.78;100.00
2875;BME280;1445;52.600;13.328;2023-04-01T23:00:11;100544.97;;;3.74;100.00
2875;BME280;1445;52.600;13.328;2023-04-01T23:03:33;100556.69;;;3.74;100.00
2875;BME280;1445;52.600;13.328;2023-04-01T23:05:35;100549.06;;;3.76;100.00
2875;BME280;1445;52.600;13.328;2023-04-01T23:11:03;100551.50;;;3.73;100.00
2875;BME280;1445;52.600;13.328;2023-04-01T23:13:41;100553.94;;;3.69;100.00
2875;BME280;1445;52.600;13.328;2023-04-01T23:16:09;100564.56;;;3.71;100.00
2875;BME280;1445;52.600;13.328;2023-04-01T23:21:41;100564.31;;;3.72;100.00
2875;BME280;1445;52.600;13.328;2023-04-01T23:24:41;100570.00;;;3.71;100.00
2875;BME280;1445;52.600;13.328;2023-04-01T23:27:11;100565.88;;;3.68;100.00
2875;BME280;1445;52.600;13.328;2023-04-01T23:29:42;100561.50;;;3.62;100.00
2875;BME280;1445;52.600;13.328;2023-04-01T23:32:17;100575.66;;;3.59;100.00
2875;BME280;1445;52.600;13.328;2023-04-01T23:34:54;100568.28;;;3.59;100.00
2875;BME280;1445;52.600;13.328;2023-04-01T23:37:21;100579.91;;;3.50;100.00
2875;BME280;1445;52.600;13.328;2023-04-01T23:39:53;100574.53;;;3.55;100.00
2875;BME280;1445;52.600;13.328;2023-04-01T23:42:29;100577.69;;;3.47;100.00
2875;BME280;1445;52.600;13.328;2023-04-01T23:44:57;100578.88;;;3.56;100.00
2875;BME280;1445;52.600;13.328;2023-04-01T23:50:03;100589.00;;;3.61;100.00
2875;BME280;1445;52.600;13.328;2023-04-01T23:52:42;100586.25;;;3.55;100.00
2875;BME280;1445;52.600;13.328;2023-04-01T23:57:37;100594.94;;;3.52;100.00
